Time;durP1;ratioP1;P1;durP2;ratioP2;P2;SDS_P1;SDS_P2;PMS_P1;PMS_P2;Temp;Humidity;BMP_temperature;BMP_pressure;BME280_temperature;BME280_humidity;BME280_pressure;Samples;Min_cycle;Max_cycle;Signal;HPM_P1;HPM_P2
2023/10/06 00:01:47;;;;;;;238.27;63.63;;;;;;;;;;4972535;28;20427;-45
2023/10/06 00:04:15;;;;;;;237.27;61.70;;;;;;;;;;4972337;28;20762;-47
2023/10/06 00:06:41;;;;;;;236.37;60.47;;;;;;;;;;4972487;28;20452;-46
2023/10/06 00:09:09;;;;;;;239.80;64.47;;;;;;;;;;4972257;28;20979;-47
2023/10/06 00:11:37;;;;;;;236.77;62.27;;;;;;;;;;4972362;28;20467;-46
2023/10/06 00:14:19;;;;;;;240.60;65.43;;;;;;;;;;4972152;28;20426;-46
2023/10/06 00:16:45;;;;;;;233.90;58.97;;;;;;;;;;4972505;28;20420;-46
2023/10/06 00:19:37;;;;;;;238.50;63.40;;;;;;;;;;4972316;28;20475;-46
2023/10/06 00:22:17;;;;;;;235.77;61.37;;;;;;;;;;4972368;28;20437;-47
2023/10/06 00:24:50;;;;;;;237.50;62.27;;;;;;;;;;4972129;28;20428;-46
2023/10/06 00:27:23;;;;;;;236.67;62.40;;;;;;;;;;4972258;28;20486;-46
2023/10/06 00:29:54;;;;;;;238.37;63.50;;;;;;;;;;4972051;28;20436;-47
2023/10/06 00:32:25;;;;;;;236.00;61.67;;;;;;;;;;4967806;28;20416;-46
2023/10/06 00:35:08;;;;;;;236.17;60.80;;;;;;;;;;4974356;28;20423;-47
2023/10/06 00:37:35;;;;;;;234.73;61.23;;;;;;;;;;4969760;28;20411;-46
2023/10/06 00:40:01;;;;;;;239.40;63.47;;;;;;;;;;4975506;28;20439;-46
2023/10/06 00:42:27;;;;;;;239.20;62.90;;;;;;;;;;4975483;28;20430;-46
2023/10/06 00:44:53;;;;;;;235.70;61.60;;;;;;;;;;4975371;28;20462;-46
2023/10/06 00:47:21;;;;;;;237.27;62.10;;;;;;;;;;4975761;28;20465;-46
2023/10/06 00:49:47;;;;;;;237.73;64.27;;;;;;;;;;4975410;28;20440;-46
2023/10/06 00:52:15;;;;;;;237.83;62.53;;;;;;;;;;4975522;28;20521;-45
2023/10/06 00:54:43;;;;;;;236.73;61.53;;;;;;;;;;4975141;28;20515;-46
2023/10/06 00:57:15;;;;;;;238.47;63.27;;;;;;;;;;4975299;28;21017;-46
2023/10/06 00:59:41;;;;;;;235.00;60.27;;;;;;;;;;4975349;28;20474;-46
2023/10/06 01:02:10;;;;;;;237.73;61.67;;;;;;;;;;4974757;28;20416;-46
2023/10/06 01:04:44;;;;;;;237.13;62.50;;;;;;;;;;4974672;28;20829;-47
2023/10/06 01:07:16;;;;;;;236.97;62.30;;;;;;;;;;4974976;28;20466;-47
2023/10/06 01:09:56;;;;;;;236.03;62.83;;;;;;;;;;4974938;28;20594;-46
2023/10/06 01:12:23;;;;;;;238.90;63.17;;;;;;;;;;4967663;28;20895;-46
2023/10/06 01:14:51;;;;;;;236.47;62.73;;;;;;;;;;4974886;28;20451;-47
2023/10/06 01:17:18;;;;;;;237.93;63.10;;;;;;;;;;4974946;28;20924;-46
2023/10/06 01:19:47;;;;;;;238.10;62.13;;;;;;;;;;4974740;28;20469;-47
2023/10/06 01:22:28;;;;;;;236.20;60.33;;;;;;;;;;4974979;28;20907;-46
2023/10/06 01:24:55;;;;;;;237.97;63.37;;;;;;;;;;4974286;28;20415;-46
2023/10/06 01:27:27;;;;;;;236.77;62.47;;;;;;;;;;4975002;28;20467;-46
2023/10/06 01:30:17;;;;;;;236.93;62.93;;;;;;;;;;4974772;28;20963;-46
2023/10/06 01:32:44;;;;;;;235.87;61.67;;;;;;;;;;4971427;28;20942;-47
2023/10/06 01:35:13;;;;;;;237.83;62.67;;;;;;;;;;4974441;28;20423;-46
2023/10/06 01:37:43;;;;;;;234.63;60.37;;;;;;;;;;4974624;28;20415;-47
2023/10/06 01:40:43;;;;;;;236.20;61.50;;;;;;;;;;4974323;28;20447;-46
2023/10/06 01:43:09;;;;;;;235.20;60.97;;;;;;;;;;4973631;28;20975;-46
2023/10/06 01:45:36;;;;;;;236.47;61.67;;;;;;;;;;4974328;28;20468;-46
2023/10/06 01:50:41;;;;;;;236.67;61.63;;;;;;;;;;4974463;28;20430;-45
2023/10/06 01:53:18;;;;;;;239.03;64.50;;;;;;;;;;4974162;28;20407;-46
2023/10/06 01:55:44;;;;;;;237.23;62.60;;;;;;;;;;4970023;28;20418;-46
2023/10/06 01:58:11;;;;;;;236.17;61.33;;;;;;;;;;4974207;28;20419;-46
2023/10/06 02:00:37;;;;;;;233.67;60.07;;;;;;;;;;4974223;28;20941;-47
2023/10/06 02:03:04;;;;;;;235.20;61.63;;;;;;;;;;4974065;28;20420;-47
2023/10/06 02:05:30;;;;;;;236.47;62.70;;;;;;;;;;4973831;28;20462;-46
2023/10/06 02:08:00;;;;;;;235.47;60.50;;;;;;;;;;4973925;28;20417;-46
2023/10/06 02:10:26;;;;;;;233.87;60.63;;;;;;;;;;4973962;28;20528;-45
2023/10/06 02:12:52;;;;;;;234.77;60.80;;;;;;;;;;4973944;28;20409;-47
2023/10/06 02:15:18;;;;;;;235.40;60.13;;;;;;;;;;4973742;28;20409;-47
2023/10/06 02:17:45;;;;;;;234.97;60.07;;;;;;;;;;4973971;28;20516;-46
2023/10/06 02:20:17;;;;;;;236.03;62.87;;;;;;;;;;4973597;28;20447;-46
2023/10/06 02:22:43;;;;;;;234.63;60.03;;;;;;;;;;4973774;28;20930;-46
2023/10/06 02:25:10;;;;;;;235.67;61.40;;;;;;;;;;4973503;28;20903;-46
2023/10/06 02:27:44;;;;;;;235.73;61.83;;;;;;;;;;4973692;28;20442;-46
2023/10/06 02:30:13;;;;;;;235.60;61.77;;;;;;;;;;4973943;28;20532;-47
2023/10/06 02:32:39;;;;;;;235.70;60.57;;;;;;;;;;4973575;28;20429;-47
2023/10/06 02:35:07;;;;;;;235.43;61.70;;;;;;;;;;4973376;28;20979;-46
2023/10/06 02:37:33;;;;;;;235.07;61.07;;;;;;;;;;4973467;28;20420;-47
2023/10/06 02:39:59;;;;;;;237.47;62.80;;;;;;;;;;4973325;28;20989;-46
2023/10/06 02:42:25;;;;;;;235.73;62.63;;;;;;;;;;4973454;28;20995;-46
2023/10/06 02:44:53;;;;;;;237.27;62.90;;;;;;;;;;4973200;28;20451;-46
2023/10/06 02:47:21;;;;;;;237.03;62.07;;;;;;;;;;4965246;28;20889;-46
2023/10/06 02:49:59;;;;;;;234.57;60.57;;;;;;;;;;4973200;28;20442;-46
2023/10/06 02:52:36;;;;;;;235.80;61.40;;;;;;;;;;4966229;28;20409;-45
2023/10/06 02:57:34;;;;;;;235.80;61.93;;;;;;;;;;4973357;28;20499;-47
2023/10/06 03:00:28;;;;;;;235.70;61.50;;;;;;;;;;4970622;28;20435;-45
2023/10/06 03:02:46;;;;;;;235.37;61.00;;;;;;;;;;4973084;28;20415;-46
2023/10/06 03:05:13;;;;;;;232.77;59.87;;;;;;;;;;4972760;28;20425;-46
2023/10/06 03:07:39;;;;;;;235.63;61.70;;;;;;;;;;4973009;28;20411;-47
2023/10/06 03:10:08;;;;;;;234.80;61.53;;;;;;;;;;4972629;28;20463;-46
2023/10/06 03:12:39;;;;;;;236.07;61.87;;;;;;;;;;4972956;28;20425;-46
2023/10/06 03:15:26;;;;;;;235.53;61.70;;;;;;;;;;4972751;28;20442;-46
2023/10/06 03:17:51;;;;;;;235.57;60.87;;;;;;;;;;4972828;28;20427;-45
2023/10/06 03:20:22;;;;;;;237.37;63.20;;;;;;;;;;4972896;28;20468;-46
2023/10/06 03:22:49;;;;;;;236.57;63.80;;;;;;;;;;4973069;28;20833;-45
2023/10/06 03:25:18;;;;;;;236.87;62.30;;;;;;;;;;4972549;28;20427;-47
2023/10/06 03:27:54;;;;;;;235.20;61.30;;;;;;;;;;4972789;28;20441;-45
2023/10/06 03:30:34;;;;;;;236.80;62.30;;;;;;;;;;4969284;28;20413;-46
2023/10/06 03:33:03;;;;;;;236.53;62.10;;;;;;;;;;4972811;28;20411;-46
2023/10/06 03:35:45;;;;;;;235.63;61.93;;;;;;;;;;4972560;28;20421;-50
2023/10/06 03:46:24;;;;;;;235.27;60.40;;;;;;;;;;5001390;28;20554;-47
2023/10/06 03:48:50;;;;;;;234.93;60.27;;;;;;;;;;4979369;28;20494;-48
2023/10/06 03:51:17;;;;;;;235.97;61.33;;;;;;;;;;4972546;28;20406;-47
2023/10/06 03:53:45;;;;;;;235.67;61.47;;;;;;;;;;4972429;28;20405;-48
2023/10/06 03:56:12;;;;;;;237.13;61.37;;;;;;;;;;4972533;28;20850;-48
2023/10/06 03:58:38;;;;;;;235.80;60.97;;;;;;;;;;4972524;28;20516;-49
2023/10/06 04:01:09;;;;;;;234.60;60.30;;;;;;;;;;4972461;28;20424;-46
2023/10/06 04:03:35;;;;;;;235.27;61.50;;;;;;;;;;4972616;28;20424;-48
2023/10/06 04:06:03;;;;;;;235.47;60.30;;;;;;;;;;4973996;28;20495;-48
2023/10/06 04:08:29;;;;;;;232.40;59.43;;;;;;;;;;4975995;28;20821;-48
2023/10/06 04:10:58;;;;;;;235.10;60.80;;;;;;;;;;4976120;28;20422;-47
2023/10/06 04:13:24;;;;;;;240.23;64.77;;;;;;;;;;4975949;28;20438;-47
2023/10/06 04:15:52;;;;;;;235.53;62.23;;;;;;;;;;4976208;28;20978;-47
2023/10/06 04:18:18;;;;;;;236.27;61.20;;;;;;;;;;4975965;28;20437;-49
2023/10/06 04:20:45;;;;;;;234.10;59.60;;;;;;;;;;4976373;28;20417;-47
2023/10/06 04:23:12;;;;;;;236.30;61.63;;;;;;;;;;4975745;28;20423;-47
2023/10/06 04:25:38;;;;;;;235.80;62.47;;;;;;;;;;4975751;28;20971;-47
2023/10/06 04:28:14;;;;;;;233.77;60.10;;;;;;;;;;4975772;28;20830;-48
2023/10/06 04:30:42;;;;;;;232.37;60.37;;;;;;;;;;4975838;28;20917;-48
2023/10/06 04:33:10;;;;;;;236.27;61.13;;;;;;;;;;4975752;28;20433;-48
2023/10/06 04:35:39;;;;;;;233.87;61.00;;;;;;;;;;4975679;28;20426;-47
2023/10/06 04:38:06;;;;;;;236.67;62.47;;;;;;;;;;4973959;28;20424;-48
2023/10/06 04:40:32;;;;;;;234.80;60.03;;;;;;;;;;4975700;28;20493;-47
2023/10/06 04:42:59;;;;;;;235.30;61.63;;;;;;;;;;4975574;28;20426;-47
2023/10/06 04:45:25;;;;;;;237.30;62.10;;;;;;;;;;4975378;28;20406;-48
2023/10/06 04:47:55;;;;;;;235.77;62.17;;;;;;;;;;4975515;28;20446;-48
2023/10/06 04:50:21;;;;;;;234.87;59.73;;;;;;;;;;4967699;28;20455;-47
2023/10/06 04:52:47;;;;;;;236.50;60.87;;;;;;;;;;4975734;28;20826;-48
2023/10/06 04:55:14;;;;;;;233.67;59.80;;;;;;;;;;4975306;28;20457;-49
2023/10/06 04:57:41;;;;;;;234.77;61.77;;;;;;;;;;4975470;28;20421;-48
2023/10/06 05:00:29;;;;;;;233.37;59.57;;;;;;;;;;4975191;28;20441;-48
2023/10/06 05:02:54;;;;;;;236.10;62.30;;;;;;;;;;4975023;28;20466;-47
2023/10/06 05:05:21;;;;;;;235.30;62.00;;;;;;;;;;4974972;28;20438;-47
2023/10/06 05:07:48;;;;;;;234.67;62.00;;;;;;;;;;4975385;28;20776;-47
2023/10/06 05:10:16;;;;;;;236.37;63.20;;;;;;;;;;4974859;28;20448;-47
2023/10/06 05:12:42;;;;;;;236.00;61.47;;;;;;;;;;4975099;28;20428;-47
2023/10/06 05:15:14;;;;;;;235.47;61.53;;;;;;;;;;4974684;28;20506;-48
2023/10/06 05:17:40;;;;;;;236.23;62.53;;;;;;;;;;4971177;28;20942;-47
2023/10/06 05:20:13;;;;;;;235.70;62.00;;;;;;;;;;4974810;28;20437;-47
2023/10/06 05:22:40;;;;;;;235.67;61.37;;;;;;;;;;4974846;28;20416;-47
2023/10/06 05:25:12;;;;;;;236.73;61.90;;;;;;;;;;4974644;28;20554;-49
2023/10/06 05:27:38;;;;;;;234.07;59.97;;;;;;;;;;4978714;28;20492;-46
2023/10/06 05:30:06;;;;;;;235.00;61.20;;;;;;;;;;4974536;28;20430;-48
2023/10/06 05:32:32;;;;;;;235.50;63.13;;;;;;;;;;4974771;28;20787;-48
2023/10/06 05:34:58;;;;;;;236.97;63.53;;;;;;;;;;4974376;28;20426;-46
2023/10/06 05:37:24;;;;;;;234.40;61.70;;;;;;;;;;4974663;28;20411;-45
2023/10/06 05:39:51;;;;;;;235.07;60.97;;;;;;;;;;4974576;28;21216;-47
2023/10/06 05:42:17;;;;;;;237.37;62.73;;;;;;;;;;4974360;28;20419;-48
2023/10/06 05:44:43;;;;;;;233.90;61.27;;;;;;;;;;4974263;28;20514;-47
2023/10/06 05:47:09;;;;;;;233.67;60.87;;;;;;;;;;4974324;28;20969;-49
2023/10/06 05:49:38;;;;;;;235.67;61.80;;;;;;;;;;4974261;28;20488;-47
2023/10/06 05:52:04;;;;;;;234.70;60.53;;;;;;;;;;4974373;28;20783;-48
2023/10/06 05:54:31;;;;;;;234.37;61.20;;;;;;;;;;4974123;28;20420;-47
2023/10/06 05:56:57;;;;;;;236.43;61.87;;;;;;;;;;4974138;28;20446;-47
2023/10/06 05:59:25;;;;;;;235.70;62.37;;;;;;;;;;4974206;28;20463;-46
2023/10/06 06:02:00;;;;;;;233.87;60.60;;;;;;;;;;4974300;28;20419;-48
2023/10/06 06:04:30;;;;;;;235.97;60.87;;;;;;;;;;4970642;28;20429;-48
2023/10/06 06:06:56;;;;;;;235.77;64.17;;;;;;;;;;4973955;28;20458;-47
2023/10/06 06:09:25;;;;;;;235.27;62.70;;;;;;;;;;4973652;28;20970;-47
2023/10/06 06:11:51;;;;;;;234.63;62.70;;;;;;;;;;4974124;28;20426;-46
2023/10/06 06:14:21;;;;;;;238.63;67.50;;;;;;;;;;4973615;28;20414;-47
2023/10/06 06:16:47;;;;;;;236.33;63.30;;;;;;;;;;4973865;28;20500;-47
2023/10/06 06:19:13;;;;;;;236.77;63.17;;;;;;;;;;4973832;28;20440;-47
2023/10/06 06:21:39;;;;;;;235.90;63.20;;;;;;;;;;4973842;28;20465;-49
2023/10/06 06:24:06;;;;;;;236.97;63.50;;;;;;;;;;4973497;28;20462;-48
2023/10/06 06:26:32;;;;;;;237.93;64.43;;;;;;;;;;4973699;28;20974;-47
2023/10/06 06:29:02;;;;;;;235.13;63.23;;;;;;;;;;4973451;28;20509;-49
2023/10/06 06:31:32;;;;;;;238.67;64.77;;;;;;;;;;4973794;28;20899;-48
2023/10/06 06:33:59;;;;;;;237.33;64.10;;;;;;;;;;4973422;28;20417;-48
2023/10/06 06:36:26;;;;;;;238.83;67.37;;;;;;;;;;4973526;28;20500;-47
2023/10/06 06:38:52;;;;;;;237.43;65.80;;;;;;;;;;4973438;28;20509;-47
2023/10/06 06:41:19;;;;;;;237.53;64.60;;;;;;;;;;4973673;28;20896;-48
2023/10/06 06:43:45;;;;;;;237.87;65.47;;;;;;;;;;4973235;28;20424;-48
2023/10/06 06:46:12;;;;;;;240.07;67.90;;;;;;;;;;4973215;28;20562;-47
2023/10/06 06:48:38;;;;;;;240.53;66.80;;;;;;;;;;4973330;28;20531;-47
2023/10/06 06:51:04;;;;;;;242.00;69.33;;;;;;;;;;4973122;28;20416;-48
2023/10/06 06:53:30;;;;;;;243.77;70.37;;;;;;;;;;4973219;28;20413;-47
2023/10/06 06:55:57;;;;;;;241.30;69.60;;;;;;;;;;4973258;28;20418;-47
2023/10/06 06:58:23;;;;;;;258.47;81.20;;;;;;;;;;4968930;28;21061;-48
2023/10/06 07:00:49;;;;;;;239.10;67.17;;;;;;;;;;4968152;28;20437;-47
2023/10/06 07:03:15;;;;;;;241.97;70.93;;;;;;;;;;4972730;28;20431;-47
2023/10/06 07:05:41;;;;;;;238.67;69.57;;;;;;;;;;4972750;28;20460;-47
2023/10/06 07:08:07;;;;;;;241.97;70.27;;;;;;;;;;4972869;28;20424;-47
2023/10/06 07:10:38;;;;;;;240.33;70.43;;;;;;;;;;4973093;28;20451;-48
2023/10/06 07:13:05;;;;;;;247.73;75.30;;;;;;;;;;4967749;28;20425;-47
2023/10/06 07:15:32;;;;;;;245.77;74.37;;;;;;;;;;4971013;28;20419;-47
2023/10/06 07:17:58;;;;;;;248.90;76.50;;;;;;;;;;4972963;28;20409;-48
2023/10/06 07:20:27;;;;;;;243.57;72.70;;;;;;;;;;4972786;28;20406;-48
2023/10/06 07:22:53;;;;;;;245.50;74.47;;;;;;;;;;4973011;28;20411;-47
2023/10/06 07:25:19;;;;;;;246.30;75.37;;;;;;;;;;4974106;28;20487;-47
2023/10/06 07:27:49;;;;;;;245.90;76.20;;;;;;;;;;4976251;28;20796;-46
2023/10/06 07:30:16;;;;;;;247.10;79.97;;;;;;;;;;4972666;28;20431;-48
2023/10/06 07:32:43;;;;;;;249.33;82.90;;;;;;;;;;4977617;28;20905;-47
2023/10/06 07:35:11;;;;;;;246.97;81.13;;;;;;;;;;4973861;28;20919;-49
2023/10/06 07:37:37;;;;;;;244.87;77.40;;;;;;;;;;4972942;28;20447;-47
2023/10/06 07:40:05;;;;;;;248.50;80.00;;;;;;;;;;4974097;28;20472;-48
2023/10/06 07:42:32;;;;;;;245.87;77.17;;;;;;;;;;4980010;28;20445;-48
2023/10/06 07:44:58;;;;;;;246.50;79.77;;;;;;;;;;4976359;28;21047;-47
2023/10/06 07:47:24;;;;;;;245.03;74.60;;;;;;;;;;4982961;28;20529;-47
2023/10/06 07:49:50;;;;;;;245.97;76.23;;;;;;;;;;4984028;28;20428;-47
2023/10/06 07:52:20;;;;;;;243.17;74.47;;;;;;;;;;4978399;28;20405;-48
2023/10/06 07:54:49;;;;;;;246.77;79.60;;;;;;;;;;4978411;28;20418;-48
2023/10/06 07:57:15;;;;;;;244.87;76.63;;;;;;;;;;4977012;28;20401;-48
2023/10/06 07:59:41;;;;;;;246.63;78.67;;;;;;;;;;4976286;28;20533;-47
2023/10/06 08:02:08;;;;;;;245.13;76.47;;;;;;;;;;4976356;28;20467;-47
2023/10/06 08:04:34;;;;;;;248.07;79.80;;;;;;;;;;4984143;28;20508;-49
2023/10/06 08:07:00;;;;;;;245.27;76.60;;;;;;;;;;4977627;28;20453;-48
2023/10/06 08:09:27;;;;;;;246.20;78.50;;;;;;;;;;4978956;28;20537;-46
2023/10/06 08:11:55;;;;;;;246.87;80.33;;;;;;;;;;4973430;28;20431;-47
2023/10/06 08:14:24;;;;;;;246.77;80.27;;;;;;;;;;4975763;28;20471;-47
2023/10/06 08:16:50;;;;;;;247.43;81.03;;;;;;;;;;4976094;28;20502;-48
2023/10/06 08:19:16;;;;;;;243.77;76.03;;;;;;;;;;4975875;28;20468;-47
2023/10/06 08:21:42;;;;;;;244.77;77.13;;;;;;;;;;4976925;28;20417;-49
2023/10/06 08:24:09;;;;;;;244.87;76.67;;;;;;;;;;4975843;28;20426;-48
2023/10/06 08:26:36;;;;;;;247.47;80.50;;;;;;;;;;4976044;28;20468;-48
2023/10/06 08:29:04;;;;;;;245.77;76.13;;;;;;;;;;4975932;28;20436;-48
2023/10/06 08:31:30;;;;;;;243.17;76.37;;;;;;;;;;4975872;28;20783;-48
2023/10/06 08:33:58;;;;;;;242.57;73.63;;;;;;;;;;4975425;28;20421;-48
2023/10/06 08:36:24;;;;;;;245.77;79.37;;;;;;;;;;4975707;28;20427;-48
2023/10/06 08:38:51;;;;;;;246.60;78.20;;;;;;;;;;4975703;28;20490;-49
2023/10/06 08:41:22;;;;;;;244.67;78.03;;;;;;;;;;4975534;28;20413;-47
2023/10/06 08:43:49;;;;;;;242.77;74.57;;;;;;;;;;4973461;28;20508;-48
2023/10/06 08:46:15;;;;;;;247.30;78.83;;;;;;;;;;4972588;28;20480;-49
2023/10/06 08:48:42;;;;;;;249.27;82.97;;;;;;;;;;4975109;28;21126;-48
2023/10/06 08:51:14;;;;;;;251.37;83.67;;;;;;;;;;4978077;28;20416;-49
2023/10/06 08:53:41;;;;;;;250.43;82.67;;;;;;;;;;4966546;28;20421;-48
2023/10/06 08:56:07;;;;;;;245.10;77.67;;;;;;;;;;4975398;28;20420;-48
2023/10/06 08:58:35;;;;;;;245.93;77.47;;;;;;;;;;4975292;28;20441;-47
2023/10/06 09:01:02;;;;;;;249.77;82.63;;;;;;;;;;4972177;28;20447;-49
2023/10/06 09:03:29;;;;;;;255.80;87.83;;;;;;;;;;4977290;28;20566;-49
2023/10/06 09:05:55;;;;;;;254.33;89.50;;;;;;;;;;4977095;28;20548;-48
2023/10/06 09:08:21;;;;;;;257.00;92.93;;;;;;;;;;4974799;28;20487;-48
2023/10/06 09:10:51;;;;;;;260.43;98.83;;;;;;;;;;4974273;28;20510;-48
2023/10/06 09:13:21;;;;;;;259.03;101.60;;;;;;;;;;4972697;28;20429;-48
2023/10/06 09:15:59;;;;;;;262.33;105.27;;;;;;;;;;4972802;28;20445;-49
2023/10/06 09:18:29;;;;;;;260.30;107.30;;;;;;;;;;4972407;28;20450;-48
2023/10/06 09:20:57;;;;;;;263.87;113.83;;;;;;;;;;4974800;28;20439;-48
2023/10/06 09:23:30;;;;;;;269.20;116.97;;;;;;;;;;4976223;28;20432;-49
2023/10/06 09:25:57;;;;;;;263.03;109.10;;;;;;;;;;4979104;28;20466;-47
2023/10/06 09:28:23;;;;;;;262.57;112.10;;;;;;;;;;4972865;28;20440;-48
2023/10/06 09:30:51;;;;;;;263.97;114.40;;;;;;;;;;4974250;28;20751;-48
2023/10/06 09:33:23;;;;;;;266.83;119.70;;;;;;;;;;4972569;28;20412;-49
2023/10/06 09:36:00;;;;;;;262.63;111.20;;;;;;;;;;4973031;28;20428;-49
2023/10/06 09:38:26;;;;;;;265.60;113.87;;;;;;;;;;4965901;28;20523;-47
2023/10/06 09:40:52;;;;;;;264.87;116.17;;;;;;;;;;4972863;28;20409;-47
2023/10/06 09:43:19;;;;;;;265.90;118.80;;;;;;;;;;4973403;28;20413;-48
2023/10/06 09:45:47;;;;;;;261.87;112.17;;;;;;;;;;4975617;28;20409;-49
2023/10/06 09:48:15;;;;;;;266.93;121.07;;;;;;;;;;4974534;28;20436;-48
2023/10/06 09:50:43;;;;;;;265.70;120.50;;;;;;;;;;4974465;28;20468;-48
2023/10/06 09:53:12;;;;;;;265.83;119.70;;;;;;;;;;4973094;28;20413;-48
2023/10/06 09:55:40;;;;;;;263.33;116.73;;;;;;;;;;4974313;28;20460;-49
2023/10/06 09:58:07;;;;;;;270.90;130.23;;;;;;;;;;4976987;28;20416;-47
2023/10/06 10:00:36;;;;;;;267.73;122.50;;;;;;;;;;4993727;28;20407;-48
2023/10/06 10:03:04;;;;;;;265.43;120.93;;;;;;;;;;4954475;28;20501;-49
2023/10/06 10:05:30;;;;;;;262.50;114.70;;;;;;;;;;4989016;28;20408;-49
2023/10/06 10:07:56;;;;;;;265.80;120.70;;;;;;;;;;4979203;28;20417;-48
2023/10/06 10:10:22;;;;;;;265.27;119.00;;;;;;;;;;4981507;28;20428;-49
2023/10/06 10:13:07;;;;;;;265.10;116.53;;;;;;;;;;4975047;28;20459;-49
2023/10/06 10:15:44;;;;;;;263.63;114.70;;;;;;;;;;4967480;28;20784;-49
2023/10/06 10:18:29;;;;;;;266.77;114.87;;;;;;;;;;4978376;28;20455;-48
2023/10/06 10:20:57;;;;;;;264.10;114.50;;;;;;;;;;4979809;28;20474;-48
2023/10/06 10:23:26;;;;;;;266.70;116.10;;;;;;;;;;4977211;28;20467;-48
2023/10/06 10:25:53;;;;;;;264.23;116.07;;;;;;;;;;4978185;28;20544;-46
2023/10/06 10:28:20;;;;;;;266.67;119.60;;;;;;;;;;4965967;28;20963;-48
2023/10/06 10:30:53;;;;;;;266.37;117.37;;;;;;;;;;4973267;28;20413;-47
2023/10/06 10:33:29;;;;;;;259.90;105.17;;;;;;;;;;4977973;28;20769;-49
2023/10/06 10:36:16;;;;;;;260.17;109.70;;;;;;;;;;4979472;28;20574;-48
2023/10/06 10:38:42;;;;;;;263.37;110.53;;;;;;;;;;4975967;28;20452;-48
2023/10/06 10:41:09;;;;;;;260.57;105.90;;;;;;;;;;4973385;28;20421;-48
2023/10/06 10:43:41;;;;;;;258.43;100.50;;;;;;;;;;4975984;28;20455;-47
2023/10/06 10:46:08;;;;;;;259.67;99.57;;;;;;;;;;4973412;28;20464;-48
2023/10/06 10:48:37;;;;;;;255.63;96.17;;;;;;;;;;4973460;28;20641;-48
2023/10/06 10:51:05;;;;;;;257.70;99.17;;;;;;;;;;4972917;28;20464;-47
2023/10/06 10:53:33;;;;;;;257.40;94.07;;;;;;;;;;4973420;28;20408;-48
2023/10/06 10:56:01;;;;;;;255.90;95.27;;;;;;;;;;4991164;28;20500;-48
2023/10/06 10:58:42;;;;;;;253.67;92.00;;;;;;;;;;4977704;28;20447;-49
2023/10/06 11:01:31;;;;;;;255.97;94.30;;;;;;;;;;4973228;28;20415;-47
2023/10/06 11:04:18;;;;;;;255.30;93.57;;;;;;;;;;4987461;28;20498;-47
2023/10/06 11:06:44;;;;;;;254.20;93.27;;;;;;;;;;4978482;28;20457;-47
2023/10/06 11:09:26;;;;;;;252.77;94.00;;;;;;;;;;4984223;28;20453;-48
2023/10/06 11:11:55;;;;;;;255.43;95.80;;;;;;;;;;4992603;28;20393;-48
2023/10/06 11:14:22;;;;;;;256.53;95.27;;;;;;;;;;4980312;28;20413;-48
2023/10/06 11:16:49;;;;;;;257.07;98.07;;;;;;;;;;4977448;28;20420;-47
2023/10/06 11:19:15;;;;;;;262.53;106.83;;;;;;;;;;4981419;28;20906;-48
2023/10/06 11:21:44;;;;;;;263.03;110.27;;;;;;;;;;4972888;28;20784;-47
2023/10/06 11:24:10;;;;;;;265.73;118.93;;;;;;;;;;4973760;28;20409;-47
2023/10/06 11:26:38;;;;;;;267.40;122.03;;;;;;;;;;4972756;28;20963;-48
2023/10/06 11:29:04;;;;;;;264.67;120.40;;;;;;;;;;4972681;28;20440;-47
2023/10/06 11:31:31;;;;;;;265.07;123.50;;;;;;;;;;4972576;28;20454;-47
2023/10/06 11:33:57;;;;;;;268.53;127.60;;;;;;;;;;4972730;28;20417;-48
2023/10/06 11:36:23;;;;;;;269.37;128.07;;;;;;;;;;4972920;28;20783;-47
2023/10/06 11:38:50;;;;;;;266.43;127.40;;;;;;;;;;4972718;28;20932;-49
2023/10/06 11:41:25;;;;;;;265.43;121.93;;;;;;;;;;4972725;28;20412;-48
2023/10/06 11:43:55;;;;;;;265.80;124.97;;;;;;;;;;4969050;28;20420;-48
2023/10/06 11:46:21;;;;;;;267.43;128.00;;;;;;;;;;4976446;28;20456;-48
2023/10/06 11:48:48;;;;;;;266.30;126.67;;;;;;;;;;4987235;28;20944;-48
2023/10/06 11:51:15;;;;;;;266.70;125.83;;;;;;;;;;4973342;28;20413;-48
2023/10/06 11:53:41;;;;;;;269.67;130.23;;;;;;;;;;4974993;28;20435;-48
2023/10/06 11:56:12;;;;;;;266.07;126.03;;;;;;;;;;4976750;28;21021;-48
2023/10/06 11:58:40;;;;;;;265.13;127.13;;;;;;;;;;4972704;28;20959;-49
2023/10/06 12:01:06;;;;;;;267.63;130.53;;;;;;;;;;4973332;28;20409;-48
2023/10/06 12:03:39;;;;;;;269.07;133.80;;;;;;;;;;4978551;28;20479;-48
2023/10/06 12:06:12;;;;;;;266.27;129.87;;;;;;;;;;4972780;28;20491;-48
2023/10/06 12:08:52;;;;;;;264.20;124.97;;;;;;;;;;4972323;28;20499;-48
2023/10/06 12:11:18;;;;;;;262.07;124.53;;;;;;;;;;4976445;28;20401;-48
2023/10/06 12:13:45;;;;;;;264.03;126.73;;;;;;;;;;4972376;28;20448;-48
2023/10/06 12:16:14;;;;;;;266.53;125.93;;;;;;;;;;4972485;28;20980;-47
2023/10/06 12:18:43;;;;;;;266.20;124.37;;;;;;;;;;4973351;28;20435;-48
2023/10/06 12:21:11;;;;;;;264.73;120.17;;;;;;;;;;4972548;28;20434;-48
2023/10/06 12:23:37;;;;;;;263.53;116.50;;;;;;;;;;4973943;28;20418;-48
2023/10/06 12:26:05;;;;;;;264.47;117.73;;;;;;;;;;4974519;28;20459;-48
2023/10/06 12:28:31;;;;;;;263.97;118.17;;;;;;;;;;4981456;28;20793;-47
2023/10/06 12:30:57;;;;;;;263.93;117.40;;;;;;;;;;4982654;28;20417;-49
2023/10/06 12:33:23;;;;;;;262.63;115.73;;;;;;;;;;4988529;28;20416;-48
2023/10/06 12:35:52;;;;;;;267.33;124.17;;;;;;;;;;4979883;28;20416;-48
2023/10/06 12:38:26;;;;;;;264.90;121.37;;;;;;;;;;4979592;28;20433;-48
2023/10/06 12:40:52;;;;;;;263.93;123.03;;;;;;;;;;4981436;28;20414;-48
2023/10/06 12:43:22;;;;;;;267.40;127.37;;;;;;;;;;4975582;28;20413;-49
2023/10/06 12:45:48;;;;;;;264.27;123.57;;;;;;;;;;4975883;28;20405;-48
2023/10/06 12:48:14;;;;;;;264.13;125.37;;;;;;;;;;4974899;28;20429;-48
2023/10/06 12:50:40;;;;;;;263.63;124.17;;;;;;;;;;4977903;28;20759;-49
2023/10/06 12:53:11;;;;;;;268.00;129.27;;;;;;;;;;4979098;28;20644;-49
2023/10/06 12:55:41;;;;;;;264.67;128.07;;;;;;;;;;4975462;28;20417;-48
2023/10/06 12:58:11;;;;;;;268.57;132.77;;;;;;;;;;4982401;28;20408;-49
2023/10/06 13:00:37;;;;;;;266.57;129.93;;;;;;;;;;4975442;28;20441;-47
2023/10/06 13:03:03;;;;;;;268.23;132.70;;;;;;;;;;4977546;28;20416;-48
2023/10/06 13:05:29;;;;;;;269.27;135.33;;;;;;;;;;4975647;28;20400;-49
2023/10/06 13:07:57;;;;;;;265.93;131.20;;;;;;;;;;4978264;28;20487;-48
2023/10/06 13:10:24;;;;;;;270.40;139.70;;;;;;;;;;4980604;28;20455;-48
2023/10/06 13:12:50;;;;;;;267.93;135.40;;;;;;;;;;4989769;28;20404;-49
2023/10/06 13:15:18;;;;;;;270.00;143.03;;;;;;;;;;4975122;28;20979;-49
2023/10/06 13:17:45;;;;;;;269.00;136.63;;;;;;;;;;4977164;28;20416;-48
2023/10/06 13:20:16;;;;;;;268.40;139.97;;;;;;;;;;4981203;28;20771;-48
2023/10/06 13:22:42;;;;;;;269.63;141.67;;;;;;;;;;4979929;28;20495;-48
2023/10/06 13:25:10;;;;;;;269.73;141.47;;;;;;;;;;4975695;28;20475;-48
2023/10/06 13:27:37;;;;;;;265.60;133.97;;;;;;;;;;4980677;28;20832;-49
2023/10/06 13:30:13;;;;;;;266.60;137.30;;;;;;;;;;4974713;28;20925;-49
2023/10/06 13:32:40;;;;;;;270.17;138.47;;;;;;;;;;4976782;28;20496;-49
2023/10/06 13:35:11;;;;;;;267.17;136.83;;;;;;;;;;4974604;28;20866;-49
2023/10/06 13:37:39;;;;;;;265.40;135.43;;;;;;;;;;4974649;28;20503;-49
2023/10/06 13:40:10;;;;;;;262.60;129.90;;;;;;;;;;4974109;28;20499;-49
2023/10/06 13:42:36;;;;;;;265.77;135.60;;;;;;;;;;4974836;28;20440;-48
2023/10/06 13:45:05;;;;;;;267.70;137.63;;;;;;;;;;4974418;28;20471;-49
2023/10/06 13:47:31;;;;;;;269.97;139.90;;;;;;;;;;4975119;28;20463;-49
2023/10/06 13:49:57;;;;;;;266.20;135.30;;;;;;;;;;4977333;28;20795;-48
2023/10/06 13:52:23;;;;;;;269.20;138.47;;;;;;;;;;4974400;28;20489;-48
2023/10/06 13:54:49;;;;;;;269.70;140.17;;;;;;;;;;4974320;28;20496;-49
2023/10/06 13:57:15;;;;;;;270.67;140.23;;;;;;;;;;4983252;28;20491;-49
2023/10/06 13:59:42;;;;;;;267.53;133.30;;;;;;;;;;4976115;28;20963;-49
2023/10/06 14:02:10;;;;;;;268.70;139.80;;;;;;;;;;4977975;28;20419;-49
2023/10/06 14:04:36;;;;;;;269.17;140.87;;;;;;;;;;4976857;28;20450;-48
2023/10/06 14:07:05;;;;;;;266.07;134.63;;;;;;;;;;4976280;28;20507;-49
2023/10/06 14:09:31;;;;;;;264.50;130.60;;;;;;;;;;4968770;28;20445;-47
2023/10/06 14:11:57;;;;;;;267.90;136.20;;;;;;;;;;4974224;28;20479;-48
2023/10/06 14:17:16;;;;;;;268.77;135.30;;;;;;;;;;4978926;28;20942;-49
2023/10/06 14:19:43;;;;;;;268.40;130.63;;;;;;;;;;4979072;28;20536;-48
2023/10/06 14:22:09;;;;;;;264.77;125.73;;;;;;;;;;4980660;28;20418;-48
2023/10/06 14:24:39;;;;;;;265.27;124.37;;;;;;;;;;4979663;28;20423;-48
2023/10/06 14:27:05;;;;;;;266.57;125.40;;;;;;;;;;4974985;28;21010;-48